HAZ2933 ZSHC-ZYTL
Flight info
| Callsign | HAZ2933 |
|---|---|
| Flight time | N/A |
| Altitude | 37100 |
| Route | SUPAR8D SUPAR B221 PINOT/K0863S1100 B221 XDX/K0850S1130 W174 FD W172 IGDEG W173 NIXEP NIX19A |
| Aircraft | B738/M-SDE2E3FGHIRWXY/LB1 |
Departure
| Time | 2026-05-07 06:27 |
|---|---|
| Airport | Hangzhou Xiaoshan International Airport (ZSHC) |
Arrival
| Time | N/A |
|---|---|
| Airport | Dalian Zhoushuizi International Airport (ZYTL) |
| Time | Latitude | Longitude | Altitude | Speed | Heading |
|---|---|---|---|---|---|
| 2026-05-07 06:07 | 30.23536 | 120.43555 | 31 ft | 0 kts | 241° |
| 2026-05-07 06:18 | 30.23543 | 120.43568 | 31 ft | 3 kts | 240° |
| 2026-05-07 06:18 | 30.23553 | 120.43588 | 30 ft | 3 kts | 236° |
| 2026-05-07 06:18 | 30.23565 | 120.43607 | 31 ft | 3 kts | 230° |
| 2026-05-07 06:19 | 30.23579 | 120.43624 | 31 ft | 3 kts | 217° |
| 2026-05-07 06:19 | 30.23595 | 120.43633 | 31 ft | 3 kts | 182° |
| 2026-05-07 06:19 | 30.23605 | 120.43632 | 30 ft | 0 kts | 151° |
| 2026-05-07 06:21 | 30.23599 | 120.43636 | 30 ft | 2 kts | 151° |
| 2026-05-07 06:22 | 30.23571 | 120.43654 | 30 ft | 7 kts | 151° |
| 2026-05-07 06:22 | 30.23430 | 120.43736 | 31 ft | 16 kts | 152° |
| 2026-05-07 06:22 | 30.23329 | 120.43810 | 31 ft | 18 kts | 118° |
| 2026-05-07 06:23 | 30.23370 | 120.43950 | 31 ft | 20 kts | 64° |
| 2026-05-07 06:23 | 30.23437 | 120.44104 | 30 ft | 23 kts | 65° |
| 2026-05-07 06:23 | 30.23513 | 120.44272 | 31 ft | 24 kts | 62° |
| 2026-05-07 06:23 | 30.23589 | 120.44443 | 31 ft | 25 kts | 62° |
| 2026-05-07 06:24 | 30.23669 | 120.44624 | 32 ft | 25 kts | 64° |
| 2026-05-07 06:24 | 30.23743 | 120.44795 | 31 ft | 23 kts | 63° |
| 2026-05-07 06:24 | 30.23813 | 120.44952 | 31 ft | 11 kts | 63° |
| 2026-05-07 06:24 | 30.23806 | 120.45027 | 29 ft | 11 kts | 153° |
| 2026-05-07 06:25 | 30.23734 | 120.45068 | 28 ft | 13 kts | 154° |
| 2026-05-07 06:25 | 30.23661 | 120.45040 | 28 ft | 13 kts | 239° |
| 2026-05-07 06:25 | 30.23633 | 120.44979 | 28 ft | 0 kts | 243° |
| 2026-05-07 06:26 | 30.23576 | 120.44852 | 30 ft | 50 kts | 243° |
| 2026-05-07 06:26 | 30.23302 | 120.44233 | 29 ft | 121 kts | 243° |
| 2026-05-07 06:26 | 30.22830 | 120.43165 | 33 ft | 176 kts | 243° |
| 2026-05-07 06:26 | 30.22215 | 120.41770 | 357 ft | 202 kts | 244° |
| 2026-05-07 06:27 | 30.21566 | 120.40344 | 1275 ft | 198 kts | 239° |
| 2026-05-07 06:27 | 30.20694 | 120.39102 | 2150 ft | 206 kts | 224° |
| 2026-05-07 06:27 | 30.19562 | 120.37949 | 2477 ft | 229 kts | 224° |
| 2026-05-07 06:27 | 30.18360 | 120.36654 | 3011 ft | 240 kts | 227° |
| 2026-05-07 06:28 | 30.17168 | 120.35298 | 3704 ft | 243 kts | 227° |
| 2026-05-07 06:28 | 30.15979 | 120.33884 | 4382 ft | 246 kts | 229° |
| 2026-05-07 06:28 | 30.14805 | 120.32441 | 5128 ft | 248 kts | 230° |
| 2026-05-07 06:28 | 30.13635 | 120.30966 | 5915 ft | 250 kts | 230° |
| 2026-05-07 06:29 | 30.12466 | 120.29470 | 6773 ft | 251 kts | 231° |
| 2026-05-07 06:29 | 30.11299 | 120.27966 | 7601 ft | 252 kts | 230° |
| 2026-05-07 06:29 | 30.10120 | 120.26445 | 8375 ft | 256 kts | 230° |
| 2026-05-07 06:29 | 30.08893 | 120.24950 | 9191 ft | 259 kts | 220° |
| 2026-05-07 06:30 | 30.07277 | 120.24063 | 9665 ft | 262 kts | 191° |
| 2026-05-07 06:30 | 30.05418 | 120.24152 | 9797 ft | 277 kts | 165° |
| 2026-05-07 06:30 | 30.03646 | 120.25021 | 9844 ft | 278 kts | 155° |
| 2026-05-07 06:30 | 30.02069 | 120.26283 | 9829 ft | 278 kts | 131° |
| 2026-05-07 06:31 | 30.01164 | 120.28233 | 9841 ft | 279 kts | 104° |
| 2026-05-07 06:31 | 30.01104 | 120.30526 | 9864 ft | 299 kts | 77° |
| 2026-05-07 06:31 | 30.01854 | 120.32781 | 9867 ft | 304 kts | 62° |
| 2026-05-07 06:31 | 30.02832 | 120.34955 | 9842 ft | 305 kts | 61° |
| 2026-05-07 06:32 | 30.03830 | 120.37110 | 9845 ft | 305 kts | 60° |
| 2026-05-07 06:32 | 30.04822 | 120.39265 | 9849 ft | 303 kts | 61° |
| 2026-05-07 06:32 | 30.05802 | 120.41421 | 9846 ft | 303 kts | 61° |
| 2026-05-07 06:32 | 30.06774 | 120.43579 | 9864 ft | 303 kts | 61° |
| 2026-05-07 06:33 | 30.07429 | 120.45039 | 9834 ft | 303 kts | 62° |
| 2026-05-07 06:33 | 30.08393 | 120.47202 | 9843 ft | 303 kts | 62° |
| 2026-05-07 06:33 | 30.09357 | 120.49368 | 9845 ft | 303 kts | 62° |
| 2026-05-07 06:33 | 30.10319 | 120.51533 | 9843 ft | 304 kts | 62° |
| 2026-05-07 06:34 | 30.11283 | 120.53703 | 9870 ft | 304 kts | 62° |
| 2026-05-07 06:34 | 30.12053 | 120.55975 | 9803 ft | 307 kts | 82° |
| 2026-05-07 06:34 | 30.11979 | 120.58405 | 9848 ft | 305 kts | 105° |
| 2026-05-07 06:34 | 30.11232 | 120.60695 | 9877 ft | 306 kts | 114° |
| 2026-05-07 06:35 | 30.09582 | 120.65256 | 9832 ft | 306 kts | 114° |
| 2026-05-07 06:35 | 30.08780 | 120.67526 | 9843 ft | 306 kts | 113° |
| 2026-05-07 06:35 | 30.07971 | 120.69804 | 9842 ft | 308 kts | 114° |
| 2026-05-07 06:36 | 30.07162 | 120.72089 | 9832 ft | 307 kts | 113° |
| 2026-05-07 06:36 | 30.06354 | 120.74364 | 9834 ft | 306 kts | 113° |
| 2026-05-07 06:36 | 30.05549 | 120.76639 | 9831 ft | 306 kts | 113° |
| 2026-05-07 06:36 | 30.04745 | 120.78913 | 9819 ft | 306 kts | 113° |
| 2026-05-07 06:37 | 30.03935 | 120.81183 | 9845 ft | 306 kts | 114° |
| 2026-05-07 06:37 | 30.03164 | 120.83477 | 9824 ft | 308 kts | 105° |
| 2026-05-07 06:37 | 30.03053 | 120.85924 | 9833 ft | 307 kts | 78° |
| 2026-05-07 06:37 | 30.03823 | 120.88210 | 10123 ft | 309 kts | 56° |
| 2026-05-07 06:38 | 30.05120 | 120.90298 | 10326 ft | 334 kts | 51° |
| 2026-05-07 06:38 | 30.06609 | 120.92529 | 10515 ft | 359 kts | 51° |
| 2026-05-07 06:38 | 30.08173 | 120.94890 | 10705 ft | 379 kts | 51° |
| 2026-05-07 06:38 | 30.09763 | 120.97327 | 11190 ft | 389 kts | 52° |
| 2026-05-07 06:39 | 30.11386 | 120.99842 | 11850 ft | 393 kts | 52° |
| 2026-05-07 06:39 | 30.13044 | 121.02427 | 12472 ft | 398 kts | 52° |
| 2026-05-07 06:39 | 30.14700 | 121.05011 | 13041 ft | 403 kts | 52° |
| 2026-05-07 06:39 | 30.16379 | 121.07632 | 13634 ft | 408 kts | 51° |
| 2026-05-07 06:40 | 30.18075 | 121.10280 | 14150 ft | 412 kts | 51° |
| 2026-05-07 06:40 | 30.19787 | 121.12954 | 14697 ft | 415 kts | 51° |
| 2026-05-07 06:40 | 30.21512 | 121.15648 | 15244 ft | 418 kts | 52° |
| 2026-05-07 06:40 | 30.23249 | 121.18362 | 15754 ft | 422 kts | 52° |
| 2026-05-07 06:41 | 30.25004 | 121.21106 | 16254 ft | 426 kts | 52° |
| 2026-05-07 06:41 | 30.26735 | 121.23909 | 16738 ft | 430 kts | 54° |
| 2026-05-07 06:41 | 30.28389 | 121.26812 | 17241 ft | 434 kts | 56° |
| 2026-05-07 06:41 | 30.30019 | 121.29764 | 17708 ft | 438 kts | 56° |
| 2026-05-07 06:42 | 30.31665 | 121.32745 | 18183 ft | 441 kts | 56° |
| 2026-05-07 06:42 | 30.33336 | 121.35736 | 18574 ft | 444 kts | 55° |
| 2026-05-07 06:42 | 30.35028 | 121.38744 | 18999 ft | 447 kts | 55° |
| 2026-05-07 06:42 | 30.36737 | 121.41762 | 19394 ft | 450 kts | 55° |
| 2026-05-07 06:43 | 30.38466 | 121.44793 | 19771 ft | 453 kts | 54° |
| 2026-05-07 06:43 | 30.40212 | 121.47848 | 20146 ft | 456 kts | 54° |
| 2026-05-07 06:43 | 30.41969 | 121.50924 | 20508 ft | 459 kts | 54° |
| 2026-05-07 06:43 | 30.43736 | 121.54022 | 20869 ft | 463 kts | 54° |
| 2026-05-07 06:44 | 30.45511 | 121.57140 | 21233 ft | 465 kts | 54° |
| 2026-05-07 06:44 | 30.47299 | 121.60286 | 21566 ft | 469 kts | 54° |
| 2026-05-07 06:44 | 30.49097 | 121.63451 | 21907 ft | 472 kts | 54° |
| 2026-05-07 06:44 | 30.50904 | 121.66638 | 22241 ft | 475 kts | 54° |
| 2026-05-07 06:45 | 30.52723 | 121.69847 | 22576 ft | 477 kts | 54° |
| 2026-05-07 06:45 | 30.54550 | 121.73073 | 22907 ft | 480 kts | 54° |
| 2026-05-07 06:45 | 30.56388 | 121.76323 | 23213 ft | 483 kts | 54° |
| 2026-05-07 06:45 | 30.58237 | 121.79594 | 23514 ft | 486 kts | 54° |
| 2026-05-07 06:46 | 30.60093 | 121.82879 | 23783 ft | 488 kts | 54° |
| 2026-05-07 06:46 | 30.61951 | 121.86172 | 24091 ft | 489 kts | 54° |
| 2026-05-07 06:46 | 30.63815 | 121.89478 | 24387 ft | 490 kts | 54° |
| 2026-05-07 06:46 | 30.65684 | 121.92795 | 24672 ft | 491 kts | 54° |
| 2026-05-07 06:47 | 30.67554 | 121.96117 | 24948 ft | 493 kts | 54° |
| 2026-05-07 06:47 | 30.69432 | 121.99456 | 25208 ft | 494 kts | 54° |
| 2026-05-07 06:47 | 30.71314 | 122.02804 | 25478 ft | 496 kts | 54° |
| 2026-05-07 06:47 | 30.73200 | 122.06164 | 25742 ft | 497 kts | 54° |
| 2026-05-07 06:48 | 30.75091 | 122.09533 | 26012 ft | 499 kts | 54° |
| 2026-05-07 06:48 | 30.76992 | 122.12910 | 26257 ft | 500 kts | 53° |
| 2026-05-07 06:48 | 30.79228 | 122.15978 | 26455 ft | 497 kts | 39° |
| 2026-05-07 06:48 | 30.81957 | 122.18395 | 26721 ft | 491 kts | 27° |
| 2026-05-07 06:49 | 30.84994 | 122.20145 | 26977 ft | 485 kts | 15° |
| 2026-05-07 06:49 | 30.88222 | 122.21236 | 27228 ft | 482 kts | 10° |
| 2026-05-07 06:49 | 30.91472 | 122.22216 | 27451 ft | 484 kts | 10° |
| 2026-05-07 06:49 | 30.94739 | 122.23234 | 27639 ft | 487 kts | 11° |
| 2026-05-07 06:50 | 30.98009 | 122.24309 | 27841 ft | 489 kts | 12° |
| 2026-05-07 06:50 | 31.01271 | 122.25478 | 28046 ft | 493 kts | 15° |